Time;durP1;ratioP1;P1;durP2;ratioP2;P2;SDS_P1;SDS_P2;PMS_P1;PMS_P2;Temp;Humidity;BMP_temperature;BMP_pressure;BME280_temperature;BME280_humidity;BME280_pressure;Samples;Min_cycle;Max_cycle;Signal;HPM_P1;HPM_P2
2023/08/30 00:00:10;;;;;;;47.47;43.58;;;13.00;99.90;;;;;;6214367;23;20012;-78
2023/08/30 00:02:36;;;;;;;53.88;49.45;;;12.90;99.90;;;;;;6214075;23;20087;-79
2023/08/30 00:05:03;;;;;;;47.40;43.42;;;12.90;99.90;;;;;;6239738;23;20039;-78
2023/08/30 00:07:29;;;;;;;49.50;45.40;;;12.90;99.90;;;;;;6239406;23;20320;-79
2023/08/30 00:09:56;;;;;;;53.80;49.53;;;12.90;99.90;;;;;;6239604;23;20023;-78
2023/08/30 00:12:22;;;;;;;49.55;45.33;;;12.80;99.90;;;;;;6213635;23;20008;-78
2023/08/30 00:14:48;;;;;;;50.28;46.35;;;12.80;99.90;;;;;;6239196;23;20087;-79
2023/08/30 00:17:14;;;;;;;46.88;43.20;;;12.80;99.90;;;;;;6240634;22;20012;-78
2023/08/30 00:19:40;;;;;;;53.80;49.53;;;12.70;99.90;;;;;;6239724;23;20016;-78
2023/08/30 00:22:08;;;;;;;52.85;48.85;;;12.70;99.90;;;;;;6238832;23;20163;-78
2023/08/30 00:24:35;;;;;;;51.40;46.80;;;12.70;99.90;;;;;;6213812;23;20042;-79
2023/08/30 00:27:02;;;;;;;51.53;47.33;;;12.60;99.90;;;;;;6238728;23;20127;-78
2023/08/30 00:29:28;;;;;;;58.35;53.75;;;12.60;99.90;;;;;;6239435;23;20019;-79
2023/08/30 00:31:55;;;;;;;52.17;48.00;;;12.60;99.90;;;;;;6239600;23;20008;-79
2023/08/30 00:34:20;;;;;;;57.05;52.05;;;12.50;99.90;;;;;;6214049;23;20091;-79
2023/08/30 00:36:46;;;;;;;61.53;56.30;;;12.50;99.90;;;;;;6213948;23;20055;-78
2023/08/30 00:39:12;;;;;;;54.70;50.33;;;12.50;99.90;;;;;;6239162;23;20008;-78
2023/08/30 00:41:38;;;;;;;60.45;55.97;;;12.40;99.90;;;;;;6238260;23;20325;-78
2023/08/30 00:44:04;;;;;;;60.22;55.10;;;12.40;99.90;;;;;;6213888;23;20293;-78
2023/08/30 00:46:31;;;;;;;56.50;51.83;;;12.40;99.90;;;;;;6239058;23;20047;-78
2023/08/30 00:48:58;;;;;;;57.60;52.67;;;12.40;99.90;;;;;;6213492;23;20012;-79
2023/08/30 00:51:23;;;;;;;57.55;52.72;;;12.40;99.90;;;;;;6238944;23;20516;-78
2023/08/30 00:53:49;;;;;;;59.85;54.72;;;12.40;99.90;;;;;;6239238;23;20055;-78
2023/08/30 00:56:15;;;;;;;56.10;51.42;;;12.40;99.90;;;;;;6213477;23;20030;-78
2023/08/30 00:58:41;;;;;;;55.28;50.53;;;12.60;99.90;;;;;;6239243;23;20475;-78
2023/08/30 01:01:08;;;;;;;57.00;52.05;;;12.50;99.90;;;;;;6238879;23;20012;-78
2023/08/30 01:03:34;;;;;;;57.58;52.45;;;12.60;99.90;;;;;;6238967;23;20178;-78
2023/08/30 01:06:00;;;;;;;57.80;52.83;;;12.60;99.90;;;;;;6238792;23;20091;-78
2023/08/30 01:08:26;;;;;;;55.50;50.65;;;12.50;99.90;;;;;;6213578;23;20085;-79
2023/08/30 01:11:01;;;;;;;52.42;47.92;;;12.60;99.90;;;;;;6212884;23;20008;-78
2023/08/30 01:13:30;;;;;;;50.42;46.17;;;12.60;99.90;;;;;;6240797;22;20100;-78
2023/08/30 01:15:57;;;;;;;58.72;53.45;;;12.60;99.90;;;;;;6213722;23;20008;-79
2023/08/30 01:18:28;;;;;;;54.30;49.35;;;12.50;99.90;;;;;;6213517;23;20026;-78
2023/08/30 01:20:55;;;;;;;54.38;49.67;;;12.50;99.90;;;;;;6240842;22;20012;-79
2023/08/30 01:23:47;;;;;;;56.90;51.95;;;12.40;99.90;;;;;;6213727;23;20703;-78
2023/08/30 01:26:34;;;;;;;57.88;53.30;;;12.40;99.90;;;;;;6238525;23;20012;-78
2023/08/30 01:29:03;;;;;;;58.55;53.30;;;12.30;99.90;;;;;;6238707;23;20014;-79
2023/08/30 01:31:33;;;;;;;57.38;52.63;;;12.30;99.90;;;;;;6238923;23;20012;-79
2023/08/30 01:34:02;;;;;;;59.67;54.72;;;12.20;99.90;;;;;;6240946;22;20038;-79
2023/08/30 01:36:29;;;;;;;56.30;51.83;;;12.20;99.90;;;;;;6213741;23;20009;-78
2023/08/30 01:38:55;;;;;;;55.67;50.97;;;12.10;99.90;;;;;;6213023;23;20008;-78
2023/08/30 01:41:23;;;;;;;52.85;48.33;;;12.10;99.90;;;;;;6213565;23;20019;-78
2023/08/30 01:43:49;;;;;;;61.08;55.78;;;12.20;99.90;;;;;;6238763;23;20026;-78
2023/08/30 01:46:17;;;;;;;52.95;48.38;;;12.10;99.90;;;;;;6240580;22;20015;-78
2023/08/30 01:48:43;;;;;;;60.30;55.20;;;12.30;99.90;;;;;;6238664;23;20506;-78
2023/08/30 01:51:09;;;;;;;60.40;55.00;;;12.20;99.90;;;;;;6238530;23;20339;-78
2023/08/30 01:53:36;;;;;;;63.85;58.40;;;12.20;99.90;;;;;;6238257;23;20202;-78
2023/08/30 01:56:02;;;;;;;56.47;51.22;;;12.20;99.90;;;;;;6238470;23;20009;-78
2023/08/30 01:58:28;;;;;;;55.92;50.88;;;12.30;99.90;;;;;;6238613;23;20351;-78
2023/08/30 02:00:54;;;;;;;56.83;51.75;;;12.30;99.90;;;;;;6240559;23;20022;-78
2023/08/30 02:03:19;;;;;;;49.95;45.22;;;12.30;99.90;;;;;;6238818;23;20094;-78
2023/08/30 02:06:04;;;;;;;57.13;51.90;;;12.30;99.90;;;;;;6239241;23;20384;-78
2023/08/30 02:08:41;;;;;;;61.08;55.95;;;12.30;99.90;;;;;;6238349;23;20059;-79
2023/08/30 02:11:14;;;;;;;51.75;47.03;;;12.30;99.90;;;;;;6213171;23;20012;-78
2023/08/30 02:13:42;;;;;;;54.17;49.85;;;12.20;99.90;;;;;;6238680;23;20008;-78
2023/08/30 02:16:09;;;;;;;56.15;51.58;;;12.20;99.90;;;;;;6213013;23;20004;-78
2023/08/30 02:18:36;;;;;;;54.58;49.88;;;12.30;99.90;;;;;;6238547;23;20008;-78
2023/08/30 02:21:02;;;;;;;57.60;52.72;;;12.10;99.90;;;;;;6238985;23;20327;-78
2023/08/30 02:23:27;;;;;;;50.13;45.90;;;12.00;99.90;;;;;;6237950;23;20023;-78
2023/08/30 02:25:55;;;;;;;55.75;51.15;;;12.00;99.90;;;;;;6238968;23;20016;-79
2023/08/30 02:28:21;;;;;;;54.70;50.00;;;12.00;99.90;;;;;;6213226;23;20016;-79
2023/08/30 02:30:46;;;;;;;57.35;52.50;;;11.90;99.90;;;;;;6238532;23;20016;-79
2023/08/30 02:33:12;;;;;;;54.63;50.30;;;11.80;99.90;;;;;;6213286;23;20051;-79
2023/08/30 02:35:38;;;;;;;54.90;50.40;;;11.80;99.90;;;;;;6213305;23;20524;-79
2023/08/30 02:38:04;;;;;;;59.45;54.28;;;11.80;99.90;;;;;;6238439;23;20012;-78
2023/08/30 02:40:31;;;;;;;58.65;53.47;;;11.70;99.90;;;;;;6240859;22;20435;-79
2023/08/30 02:42:57;;;;;;;56.97;52.28;;;11.70;99.90;;;;;;6215154;23;20012;-78
2023/08/30 02:45:23;;;;;;;61.75;56.70;;;11.70;99.90;;;;;;6240250;23;20413;-78
2023/08/30 02:47:48;;;;;;;56.88;52.08;;;11.70;99.90;;;;;;6240607;23;20020;-78
2023/08/30 02:50:14;;;;;;;52.38;48.13;;;11.60;99.90;;;;;;6215069;23;20009;-79
2023/08/30 02:52:40;;;;;;;58.13;53.25;;;11.60;99.90;;;;;;6240082;23;20341;-79
2023/08/30 02:55:06;;;;;;;57.83;53.03;;;11.60;99.90;;;;;;6240033;23;20012;-79
2023/08/30 02:57:32;;;;;;;57.53;52.63;;;11.60;99.90;;;;;;6240637;23;20101;-78
2023/08/30 02:59:57;;;;;;;58.40;53.50;;;11.60;99.90;;;;;;6241777;22;20431;-79
2023/08/30 03:02:23;;;;;;;55.75;50.60;;;11.60;99.90;;;;;;6240250;23;20101;-78
2023/08/30 03:04:49;;;;;;;53.15;48.53;;;11.60;99.90;;;;;;6214963;23;20457;-79
2023/08/30 03:07:14;;;;;;;56.60;51.97;;;11.60;99.90;;;;;;6214231;23;20083;-79
2023/08/30 03:09:40;;;;;;;51.72;47.25;;;11.50;99.90;;;;;;6240115;23;20012;-78
2023/08/30 03:12:06;;;;;;;52.83;48.38;;;11.60;99.90;;;;;;6240040;23;20012;-78
2023/08/30 03:14:32;;;;;;;55.65;51.00;;;11.60;99.90;;;;;;6214811;23;20019;-78
2023/08/30 03:16:58;;;;;;;53.15;48.90;;;11.60;99.90;;;;;;6240142;23;20331;-79
2023/08/30 03:19:23;;;;;;;53.50;48.83;;;11.60;99.90;;;;;;6214828;23;20012;-78
2023/08/30 03:21:49;;;;;;;54.15;48.90;;;11.60;99.90;;;;;;6241492;23;20087;-78
2023/08/30 03:24:15;;;;;;;49.63;45.20;;;11.70;99.90;;;;;;6241742;23;20008;-78
2023/08/30 03:26:43;;;;;;;50.00;45.65;;;11.70;99.90;;;;;;6240234;23;20009;-78
2023/08/30 03:29:09;;;;;;;49.30;45.15;;;11.70;99.90;;;;;;6214576;23;20040;-79
2023/08/30 03:31:35;;;;;;;51.42;47.25;;;11.80;99.90;;;;;;6239923;23;20356;-79
2023/08/30 03:34:00;;;;;;;50.38;46.28;;;11.80;99.90;;;;;;6214712;23;20039;-78
2023/08/30 03:36:26;;;;;;;46.47;42.70;;;11.80;99.90;;;;;;6214165;23;20050;-79
2023/08/30 03:38:51;;;;;;;49.17;45.15;;;11.70;99.90;;;;;;6239662;23;20546;-79
2023/08/30 03:41:18;;;;;;;47.88;43.85;;;11.70;99.90;;;;;;6239577;23;20087;-79
2023/08/30 03:43:43;;;;;;;50.33;46.33;;;11.70;99.90;;;;;;6240191;23;20024;-78
2023/08/30 03:46:11;;;;;;;53.60;49.10;;;11.70;99.90;;;;;;6214460;23;20008;-79
2023/08/30 03:48:37;;;;;;;51.03;46.60;;;11.60;99.90;;;;;;6239766;23;20022;-79
2023/08/30 03:51:05;;;;;;;54.42;50.28;;;11.50;99.90;;;;;;6239231;23;20016;-79
2023/08/30 03:53:30;;;;;;;55.95;51.35;;;11.50;99.90;;;;;;6214349;23;20455;-79
2023/08/30 03:55:56;;;;;;;54.67;50.20;;;11.60;99.90;;;;;;6241380;23;20101;-79
2023/08/30 03:58:22;;;;;;;57.90;52.95;;;11.40;99.90;;;;;;6241300;23;20012;-79
2023/08/30 04:00:47;;;;;;;56.88;52.38;;;11.40;99.90;;;;;;6218137;23;20530;-79
2023/08/30 04:03:15;;;;;;;55.35;50.90;;;11.40;99.90;;;;;;6239418;23;20347;-78
2023/08/30 04:05:41;;;;;;;57.05;52.35;;;11.30;99.90;;;;;;6239229;23;20273;-78
2023/08/30 04:08:07;;;;;;;62.60;57.83;;;11.30;99.90;;;;;;6214131;23;20019;-78
2023/08/30 04:10:36;;;;;;;54.50;50.00;;;12.00;99.90;;;;;;6239854;23;20078;-78
2023/08/30 04:13:03;;;;;;;54.38;49.85;;;11.30;99.90;;;;;;6214426;23;20047;-78
2023/08/30 04:15:29;;;;;;;58.45;53.13;;;11.20;99.90;;;;;;6239740;23;20450;-78
2023/08/30 04:17:54;;;;;;;58.97;54.33;;;11.20;99.90;;;;;;6214227;23;20058;-78
2023/08/30 04:20:20;;;;;;;55.33;50.70;;;11.10;99.90;;;;;;6239013;23;20016;-78
2023/08/30 04:22:45;;;;;;;65.43;60.35;;;11.10;99.90;;;;;;6214149;23;20465;-78
2023/08/30 04:25:11;;;;;;;57.45;52.80;;;11.10;99.90;;;;;;6214290;23;20052;-78
2023/08/30 04:27:37;;;;;;;56.72;51.35;;;11.10;99.90;;;;;;6213998;23;20012;-78
2023/08/30 04:30:03;;;;;;;54.15;49.55;;;11.00;99.90;;;;;;6214010;23;20020;-78
2023/08/30 04:32:29;;;;;;;59.97;54.92;;;11.00;99.90;;;;;;6239701;23;20052;-78
2023/08/30 04:34:54;;;;;;;63.65;58.63;;;11.00;99.90;;;;;;6213556;23;20012;-78
2023/08/30 04:37:20;;;;;;;55.47;50.97;;;11.00;99.90;;;;;;6213999;23;20095;-79
2023/08/30 04:39:49;;;;;;;59.53;55.03;;;11.00;99.90;;;;;;6213827;23;20106;-79
2023/08/30 04:42:15;;;;;;;64.53;59.30;;;11.00;99.90;;;;;;6239068;23;20024;-78
2023/08/30 04:44:40;;;;;;;60.15;55.15;;;11.00;99.90;;;;;;6241471;22;20012;-78
2023/08/30 04:47:06;;;;;;;59.03;54.20;;;11.00;99.90;;;;;;6213827;23;20070;-78
2023/08/30 04:49:31;;;;;;;54.00;49.72;;;11.10;99.90;;;;;;6213265;23;20035;-78
2023/08/30 04:51:57;;;;;;;61.40;56.08;;;11.10;99.90;;;;;;6239184;23;20054;-78
2023/08/30 04:54:23;;;;;;;56.72;52.03;;;11.20;99.90;;;;;;6238923;23;20035;-78
2023/08/30 04:56:49;;;;;;;58.85;54.20;;;11.10;99.90;;;;;;6239500;23;20008;-78
2023/08/30 04:59:14;;;;;;;60.03;55.00;;;11.20;99.90;;;;;;6238966;23;20012;-78
2023/08/30 05:01:44;;;;;;;58.20;53.03;;;11.20;99.90;;;;;;6238956;23;20011;-79
2023/08/30 05:04:10;;;;;;;55.05;50.10;;;11.20;99.90;;;;;;6238356;23;20012;-79
2023/08/30 05:06:35;;;;;;;56.63;51.95;;;11.20;99.90;;;;;;6239019;23;20054;-79
2023/08/30 05:09:02;;;;;;;54.55;49.85;;;11.20;99.90;;;;;;6240864;23;20007;-79
2023/08/30 05:11:28;;;;;;;50.55;46.15;;;11.20;99.90;;;;;;6240598;22;20055;-79
2023/08/30 05:13:54;;;;;;;51.95;47.42;;;11.30;99.90;;;;;;6214839;23;20043;-79
2023/08/30 05:16:20;;;;;;;55.67;50.90;;;11.30;99.90;;;;;;6239510;23;20008;-79
2023/08/30 05:18:47;;;;;;;54.05;49.42;;;11.30;99.90;;;;;;6213527;23;20355;-78
2023/08/30 05:21:14;;;;;;;51.50;46.67;;;11.40;99.90;;;;;;6240874;22;20016;-79
2023/08/30 05:23:41;;;;;;;51.95;47.47;;;11.40;99.90;;;;;;6239189;23;20070;-79
2023/08/30 05:26:12;;;;;;;51.70;47.17;;;11.60;99.90;;;;;;6241093;22;20051;-79
2023/08/30 05:28:38;;;;;;;49.17;44.83;;;11.60;99.90;;;;;;6213727;23;20012;-78
2023/08/30 05:31:04;;;;;;;51.88;47.50;;;11.70;99.90;;;;;;6238782;23;20048;-80
2023/08/30 05:33:30;;;;;;;51.63;47.45;;;11.70;99.90;;;;;;6239179;23;20015;-80
2023/08/30 05:35:55;;;;;;;53.13;48.22;;;11.80;99.90;;;;;;6239485;23;20039;-80
2023/08/30 05:38:21;;;;;;;49.55;45.58;;;12.10;99.90;;;;;;6213627;23;20089;-80
2023/08/30 05:40:47;;;;;;;49.28;45.47;;;11.90;99.90;;;;;;6238998;23;20008;-80
2023/08/30 05:43:13;;;;;;;44.45;40.80;;;12.00;99.90;;;;;;6238306;23;20027;-80
2023/08/30 05:45:39;;;;;;;47.22;43.00;;;12.10;99.90;;;;;;6213033;23;20019;-79
2023/08/30 05:48:05;;;;;;;46.97;42.90;;;12.10;99.90;;;;;;6213683;23;20008;-79
2023/08/30 05:50:31;;;;;;;51.50;47.17;;;12.20;99.90;;;;;;6239113;23;20012;-79
2023/08/30 05:52:57;;;;;;;43.83;39.78;;;12.30;99.90;;;;;;6213539;23;20321;-80
2023/08/30 05:55:22;;;;;;;45.95;42.05;;;12.40;99.90;;;;;;6238641;23;20103;-79
2023/08/30 05:57:48;;;;;;;37.72;34.50;;;12.50;99.90;;;;;;6238727;23;20320;-80
2023/08/30 06:00:14;;;;;;;46.95;43.00;;;12.60;99.90;;;;;;6238307;23;20031;-80
2023/08/30 06:02:40;;;;;;;39.67;36.00;;;12.80;99.90;;;;;;6239214;23;20330;-80
2023/08/30 06:05:06;;;;;;;37.85;34.55;;;12.90;99.90;;;;;;6238895;23;20058;-80
2023/08/30 06:07:32;;;;;;;39.92;36.05;;;13.00;99.90;;;;;;6213622;23;20016;-80
2023/08/30 06:09:58;;;;;;;40.42;36.88;;;13.10;99.90;;;;;;6238828;23;20012;-80
2023/08/30 06:12:25;;;;;;;41.80;38.47;;;13.10;99.90;;;;;;6239243;23;20063;-80
2023/08/30 06:14:54;;;;;;;36.38;33.17;;;13.10;99.90;;;;;;6238839;23;20019;-80
2023/08/30 06:17:20;;;;;;;35.85;32.75;;;13.20;99.90;;;;;;6215471;23;20008;-80
2023/08/30 06:19:46;;;;;;;34.78;31.90;;;13.30;99.90;;;;;;6243040;23;20019;-80
2023/08/30 06:22:12;;;;;;;36.05;33.00;;;13.60;99.90;;;;;;6241077;23;20469;-80
2023/08/30 06:24:38;;;;;;;34.92;31.50;;;13.40;99.90;;;;;;6242359;22;20521;-80
2023/08/30 06:27:04;;;;;;;32.38;28.63;;;13.50;99.90;;;;;;6240686;23;20047;-80
2023/08/30 06:29:29;;;;;;;31.75;28.85;;;13.50;99.90;;;;;;6214461;23;20034;-80
2023/08/30 06:31:55;;;;;;;28.77;26.33;;;13.70;99.90;;;;;;6241067;23;20012;-79
2023/08/30 06:34:21;;;;;;;35.22;32.40;;;13.80;99.90;;;;;;6241012;23;20031;-80
2023/08/30 06:36:47;;;;;;;36.85;33.88;;;13.90;99.90;;;;;;6212962;23;20312;-79
2023/08/30 06:39:13;;;;;;;30.83;28.08;;;14.00;99.90;;;;;;6240622;23;20015;-80
2023/08/30 06:41:39;;;;;;;29.23;26.65;;;14.20;99.90;;;;;;6214740;23;20451;-79
2023/08/30 06:44:05;;;;;;;32.60;29.63;;;14.30;99.90;;;;;;6239439;23;20012;-79
2023/08/30 06:46:30;;;;;;;29.20;26.70;;;14.50;99.90;;;;;;6239965;23;20020;-79
2023/08/30 06:48:56;;;;;;;31.17;28.38;;;14.60;99.90;;;;;;6240473;23;20008;-79
2023/08/30 06:51:22;;;;;;;28.70;26.13;;;14.70;99.90;;;;;;6240387;23;20437;-79
2023/08/30 06:53:47;;;;;;;27.52;24.83;;;14.90;99.90;;;;;;6214701;23;20609;-79
2023/08/30 06:56:13;;;;;;;22.98;20.52;;;15.00;99.90;;;;;;6239895;23;20019;-79
2023/08/30 06:58:39;;;;;;;27.45;24.92;;;15.00;99.90;;;;;;6239487;23;20087;-78
2023/08/30 07:01:05;;;;;;;30.92;28.23;;;15.00;99.90;;;;;;6239985;23;20066;-78
2023/08/30 07:03:31;;;;;;;35.33;32.33;;;15.00;99.90;;;;;;6240246;23;20014;-77
2023/08/30 07:05:56;;;;;;;24.27;22.02;;;14.90;99.90;;;;;;6240760;23;20040;-78
2023/08/30 07:08:22;;;;;;;28.98;26.38;;;14.90;99.90;;;;;;6239547;23;20296;-78
2023/08/30 07:10:48;;;;;;;26.75;24.42;;;14.80;99.90;;;;;;6240257;23;20016;-78
2023/08/30 07:13:14;;;;;;;24.77;22.25;;;14.80;99.90;;;;;;6213812;23;20013;-78
2023/08/30 07:15:40;;;;;;;35.55;32.47;;;14.90;99.90;;;;;;6240380;23;20008;-78
2023/08/30 07:18:07;;;;;;;33.40;30.55;;;14.90;99.90;;;;;;6214662;23;20046;-79
2023/08/30 07:20:33;;;;;;;37.33;34.03;;;14.90;99.90;;;;;;6240225;23;20166;-79
2023/08/30 07:22:59;;;;;;;35.00;31.98;;;14.90;99.90;;;;;;6214647;23;20458;-78
2023/08/30 07:25:24;;;;;;;31.20;28.30;;;15.10;99.90;;;;;;6214420;23;20012;-78
2023/08/30 07:27:50;;;;;;;23.67;21.13;;;15.20;99.90;;;;;;6241162;23;20138;-78
2023/08/30 07:30:16;;;;;;;33.00;29.95;;;15.30;99.90;;;;;;6214394;23;20359;-78
2023/08/30 07:32:42;;;;;;;31.95;29.05;;;15.40;99.90;;;;;;6239654;23;20012;-78
2023/08/30 07:35:08;;;;;;;29.05;26.45;;;15.40;99.90;;;;;;6240425;23;20019;-79
2023/08/30 07:37:34;;;;;;;28.80;26.40;;;15.40;99.90;;;;;;6242027;22;20016;-78
2023/08/30 07:40:00;;;;;;;29.05;26.55;;;15.50;99.90;;;;;;6241264;22;20028;-79
2023/08/30 07:42:26;;;;;;;32.22;29.40;;;15.60;99.90;;;;;;6238885;23;20012;-78
2023/08/30 07:44:52;;;;;;;38.45;35.45;;;15.70;99.90;;;;;;6241313;23;20026;-78
2023/08/30 07:47:18;;;;;;;26.70;24.38;;;15.90;99.90;;;;;;6241286;22;20467;-79
2023/08/30 07:49:44;;;;;;;28.75;26.15;;;16.00;99.90;;;;;;6241076;22;20134;-78
2023/08/30 07:52:10;;;;;;;28.85;26.45;;;16.10;99.90;;;;;;6240099;23;20012;-78
2023/08/30 07:54:37;;;;;;;31.52;28.67;;;16.20;99.90;;;;;;6239744;23;20012;-78
2023/08/30 07:57:03;;;;;;;27.48;25.27;;;16.50;99.90;;;;;;6238965;23;20012;-79
2023/08/30 07:59:29;;;;;;;32.17;29.70;;;16.60;99.90;;;;;;6214351;23;20023;-78
2023/08/30 08:01:55;;;;;;;30.95;28.25;;;16.80;99.90;;;;;;6214158;23;20039;-78
2023/08/30 08:04:21;;;;;;;28.02;25.33;;;16.90;99.90;;;;;;6239531;23;20039;-79
2023/08/30 08:06:47;;;;;;;32.53;29.92;;;16.90;99.90;;;;;;6214810;23;20449;-79
2023/08/30 08:09:13;;;;;;;29.17;26.38;;;16.90;99.90;;;;;;6239714;23;20483;-79
2023/08/30 08:11:43;;;;;;;29.08;26.65;;;16.90;99.90;;;;;;6213512;23;20457;-79
2023/08/30 08:14:09;;;;;;;26.02;23.65;;;16.80;99.90;;;;;;6214223;23;20008;-79
2023/08/30 08:16:35;;;;;;;23.75;21.48;;;17.00;99.90;;;;;;6239847;23;20091;-79
2023/08/30 08:19:01;;;;;;;27.90;25.13;;;17.00;99.90;;;;;;6214606;23;20402;-79
2023/08/30 08:21:27;;;;;;;28.13;25.50;;;17.20;99.90;;;;;;6240920;22;20050;-79
2023/08/30 08:23:52;;;;;;;27.52;25.05;;;17.40;99.90;;;;;;6239808;23;20020;-79
2023/08/30 08:26:18;;;;;;;25.50;23.20;;;17.70;99.90;;;;;;6238802;23;20020;-79
2023/08/30 08:28:44;;;;;;;26.20;23.90;;;17.90;99.90;;;;;;6239329;23;20439;-79
2023/08/30 08:31:10;;;;;;;28.67;26.33;;;18.00;99.90;;;;;;6239308;23;20016;-78
2023/08/30 08:33:36;;;;;;;32.13;29.17;;;17.90;99.90;;;;;;6241315;22;20018;-79
2023/08/30 08:36:02;;;;;;;30.98;28.27;;;17.90;99.90;;;;;;6239673;23;20083;-78
2023/08/30 08:38:28;;;;;;;30.90;28.48;;;17.80;99.90;;;;;;6239111;23;20463;-79
2023/08/30 08:41:05;;;;;;;25.85;23.58;;;17.80;99.90;;;;;;6238450;23;20047;-79
2023/08/30 08:43:33;;;;;;;33.08;29.83;;;17.90;99.90;;;;;;6239235;23;20020;-79
2023/08/30 08:46:00;;;;;;;27.80;25.27;;;18.00;99.90;;;;;;6241032;22;20016;-79
2023/08/30 08:48:28;;;;;;;32.00;29.27;;;18.10;99.90;;;;;;6213791;23;20039;-79
2023/08/30 08:50:55;;;;;;;34.80;32.00;;;18.20;99.90;;;;;;6240924;22;20008;-79
2023/08/30 08:53:21;;;;;;;29.50;26.95;;;18.10;99.90;;;;;;6213755;23;20066;-79
2023/08/30 08:55:48;;;;;;;30.67;28.17;;;18.20;99.90;;;;;;6213419;23;20091;-79
2023/08/30 08:58:15;;;;;;;27.90;25.55;;;18.30;99.90;;;;;;6214283;23;20067;-79
2023/08/30 09:00:44;;;;;;;35.92;33.35;;;18.40;99.90;;;;;;6214093;23;20012;-79
2023/08/30 09:03:11;;;;;;;33.15;30.50;;;18.40;99.90;;;;;;6239170;23;20016;-78
2023/08/30 09:05:40;;;;;;;31.23;28.90;;;18.40;99.90;;;;;;6213622;23;20012;-79
2023/08/30 09:08:09;;;;;;;37.47;34.58;;;18.40;99.90;;;;;;6238756;23;20012;-79
2023/08/30 09:10:36;;;;;;;33.08;30.27;;;18.40;99.90;;;;;;6238605;23;20619;-79
2023/08/30 09:13:01;;;;;;;31.92;29.30;;;18.50;99.90;;;;;;6240657;22;20012;-79
2023/08/30 09:15:32;;;;;;;30.88;28.52;;;18.50;99.90;;;;;;6239276;23;20432;-79
2023/08/30 09:17:58;;;;;;;33.50;30.60;;;18.50;99.90;;;;;;6213618;23;20186;-79
2023/08/30 09:20:23;;;;;;;30.52;27.88;;;18.50;99.90;;;;;;6238906;23;20027;-78
2023/08/30 09:22:50;;;;;;;33.35;30.85;;;18.40;99.90;;;;;;6213773;23;20070;-79
2023/08/30 09:25:26;;;;;;;28.60;26.25;;;18.20;99.90;;;;;;6238903;23;20016;-79
2023/08/30 09:28:02;;;;;;;27.75;25.45;;;18.20;99.90;;;;;;6239014;23;20439;-79
2023/08/30 09:30:29;;;;;;;22.58;20.15;;;18.10;99.90;;;;;;6240745;22;20007;-79
2023/08/30 09:33:02;;;;;;;28.33;26.13;;;18.00;99.90;;;;;;6240594;23;20012;-78
2023/08/30 09:35:28;;;;;;;25.35;23.05;;;17.80;99.90;;;;;;6213857;23;20363;-79
2023/08/30 09:37:54;;;;;;;36.33;33.25;;;17.60;99.90;;;;;;6238628;23;20023;-78
2023/08/30 09:40:20;;;;;;;29.50;27.17;;;17.50;99.90;;;;;;6213580;23;20342;-79
2023/08/30 09:42:46;;;;;;;23.52;21.45;;;17.30;99.90;;;;;;6238641;23;20031;-79
2023/08/30 09:45:39;;;;;;;22.63;20.65;;;17.30;99.90;;;;;;6240634;22;20038;-79
2023/08/30 09:48:05;;;;;;;25.95;23.75;;;17.10;99.90;;;;;;6232538;23;20312;-79
2023/08/30 09:50:36;;;;;;;23.80;21.60;;;16.90;99.90;;;;;;6215811;23;20516;-79
2023/08/30 09:53:08;;;;;;;24.33;22.17;;;16.90;99.90;;;;;;6242563;22;20008;-79
2023/08/30 09:55:34;;;;;;;32.53;29.73;;;16.80;99.90;;;;;;6215710;23;20012;-79
2023/08/30 09:58:03;;;;;;;29.33;26.77;;;16.70;99.90;;;;;;6242821;22;20335;-78
2023/08/30 10:00:29;;;;;;;29.90;27.30;;;16.60;99.90;;;;;;6215773;23;20091;-78
2023/08/30 10:02:57;;;;;;;27.80;25.35;;;16.50;99.90;;;;;;6242736;22;20401;-78
2023/08/30 10:05:23;;;;;;;29.17;26.02;;;16.40;99.90;;;;;;6240978;23;20012;-78
2023/08/30 10:07:50;;;;;;;25.95;23.55;;;16.40;99.90;;;;;;6240191;23;20054;-78
2023/08/30 10:10:16;;;;;;;28.73;26.33;;;16.40;99.90;;;;;;6215313;23;20035;-78
2023/08/30 10:12:45;;;;;;;27.33;23.33;;;16.50;99.90;;;;;;6241206;23;20008;-78
2023/08/30 10:15:11;;;;;;;25.67;22.98;;;16.70;99.90;;;;;;6240703;23;20005;-78
2023/08/30 10:17:41;;;;;;;24.88;22.55;;;16.80;99.90;;;;;;6242526;23;20011;-79
2023/08/30 10:20:07;;;;;;;28.42;25.88;;;17.10;99.90;;;;;;6240700;23;20012;-78
2023/08/30 10:22:36;;;;;;;18.85;17.08;;;17.50;99.90;;;;;;6214687;23;20020;-79
2023/08/30 10:25:05;;;;;;;21.88;19.95;;;17.90;99.90;;;;;;6215279;23;20008;-78
2023/08/30 10:27:33;;;;;;;29.85;27.42;;;18.40;99.90;;;;;;6240919;23;20012;-79
2023/08/30 10:30:04;;;;;;;26.27;24.08;;;18.70;99.90;;;;;;6240770;23;20012;-78
2023/08/30 10:32:31;;;;;;;30.10;27.63;;;18.90;99.90;;;;;;6240762;23;20088;-79
2023/08/30 10:35:01;;;;;;;24.15;22.25;;;19.00;99.90;;;;;;6242468;22;20008;-79
2023/08/30 10:37:27;;;;;;;29.73;27.60;;;19.00;99.90;;;;;;6241979;22;20015;-79
2023/08/30 10:39:59;;;;;;;21.95;20.13;;;19.10;99.90;;;;;;6240976;23;20020;-79
2023/08/30 10:42:24;;;;;;;24.98;22.67;;;19.10;99.90;;;;;;6240259;23;20047;-79
2023/08/30 10:45:05;;;;;;;23.35;21.48;;;19.10;99.90;;;;;;6242552;23;20031;-79
2023/08/30 10:47:35;;;;;;;29.10;26.77;;;19.00;99.90;;;;;;6240713;23;20012;-79
2023/08/30 10:50:07;;;;;;;21.75;20.17;;;19.20;99.90;;;;;;6239894;23;20026;-78
2023/08/30 10:52:34;;;;;;;22.97;21.30;;;19.40;99.90;;;;;;6241191;23;20020;-79
2023/08/30 10:55:11;;;;;;;24.90;23.20;;;19.50;99.90;;;;;;6240790;23;20047;-79
2023/08/30 10:57:38;;;;;;;21.92;20.25;;;19.50;99.90;;;;;;6240682;23;20267;-79
2023/08/30 11:00:09;;;;;;;21.15;19.42;;;19.60;99.90;;;;;;6240346;23;20473;-79
2023/08/30 11:02:38;;;;;;;21.40;19.83;;;19.40;99.90;;;;;;6242106;22;20058;-79
2023/08/30 11:05:08;;;;;;;22.52;20.77;;;19.20;99.90;;;;;;6214238;23;20042;-79
2023/08/30 11:07:34;;;;;;;23.65;21.85;;;19.20;99.90;;;;;;6240134;23;20012;-79
2023/08/30 11:10:00;;;;;;;30.20;28.10;;;19.10;99.90;;;;;;6241878;22;20016;-78
2023/08/30 11:12:25;;;;;;;30.70;28.55;;;18.90;99.90;;;;;;6240217;23;20022;-79
2023/08/30 11:14:54;;;;;;;26.20;24.00;;;18.90;99.90;;;;;;6214970;23;20439;-79
2023/08/30 11:17:20;;;;;;;28.20;26.15;;;18.80;99.90;;;;;;6240139;23;20012;-79
2023/08/30 11:19:46;;;;;;;23.23;21.48;;;18.60;99.90;;;;;;6239573;23;20034;-78
2023/08/30 11:22:16;;;;;;;23.67;21.67;;;18.60;99.90;;;;;;6240095;23;20008;-78
2023/08/30 11:24:43;;;;;;;26.48;24.55;;;18.50;99.90;;;;;;6240232;23;20421;-79
2023/08/30 11:27:09;;;;;;;25.67;23.85;;;18.50;99.90;;;;;;6241789;22;20008;-79
2023/08/30 11:29:35;;;;;;;29.30;27.20;;;18.50;99.90;;;;;;6240179;23;20023;-79
2023/08/30 11:32:01;;;;;;;25.02;22.90;;;18.20;99.90;;;;;;6239888;23;20013;-79
2023/08/30 11:34:27;;;;;;;27.55;25.50;;;18.10;99.90;;;;;;6239340;23;20088;-79
2023/08/30 11:36:53;;;;;;;25.38;23.33;;;18.00;99.90;;;;;;6240340;23;20016;-79
2023/08/30 11:39:19;;;;;;;28.48;26.27;;;18.00;99.90;;;;;;6214477;23;20012;-79
2023/08/30 11:41:46;;;;;;;28.70;26.35;;;17.80;99.90;;;;;;6239926;23;20023;-79
2023/08/30 11:44:12;;;;;;;28.15;25.95;;;17.70;99.90;;;;;;6239934;23;20042;-78
2023/08/30 11:46:38;;;;;;;28.83;26.52;;;17.60;99.90;;;;;;6214420;23;20027;-79
2023/08/30 11:49:04;;;;;;;24.80;22.70;;;17.50;99.90;;;;;;6239294;23;20004;-79
2023/08/30 11:51:31;;;;;;;26.08;23.85;;;17.40;99.90;;;;;;6214238;23;20035;-79
2023/08/30 11:53:57;;;;;;;24.95;23.05;;;17.20;99.90;;;;;;6214193;23;20012;-78
2023/08/30 11:56:23;;;;;;;24.42;22.40;;;17.10;99.90;;;;;;6241679;22;20004;-79
2023/08/30 11:58:49;;;;;;;27.92;25.77;;;16.90;99.90;;;;;;6214176;23;20008;-79
2023/08/30 12:01:15;;;;;;;28.77;26.58;;;16.90;99.90;;;;;;6240064;23;20012;-79
2023/08/30 12:03:40;;;;;;;26.40;24.30;;;16.80;99.90;;;;;;6213702;23;20111;-79
2023/08/30 12:06:11;;;;;;;30.77;28.42;;;16.70;99.90;;;;;;6241508;22;20055;-79
2023/08/30 12:08:36;;;;;;;28.00;25.67;;;16.60;99.90;;;;;;6239657;23;20008;-79
2023/08/30 12:11:02;;;;;;;30.33;27.83;;;16.60;99.90;;;;;;6239489;23;20015;-79
2023/08/30 12:13:32;;;;;;;27.73;25.52;;;16.50;99.90;;;;;;6214302;23;20156;-79
2023/08/30 12:15:59;;;;;;;28.30;25.98;;;16.50;99.90;;;;;;6241391;22;20391;-78
2023/08/30 12:18:29;;;;;;;25.38;23.08;;;16.40;99.90;;;;;;6238829;23;20008;-78
2023/08/30 12:20:59;;;;;;;33.38;30.83;;;16.30;99.90;;;;;;6239958;23;20020;-79
2023/08/30 12:23:27;;;;;;;33.85;31.20;;;16.40;99.90;;;;;;6239406;23;20039;-79
2023/08/30 12:26:03;;;;;;;34.25;31.65;;;16.50;99.90;;;;;;6214458;23;20023;-78